Ballinafad, Ireland
Current Conditions -  °F | °C
As of 6:00 AM on Monday 22 Dec 2014 (Local Time) from EIKN Reporting Station
Light Rain Light Rain  
Wind Chill: 52°   Ceiling: 700
Heat Index: 52°   Visibility: 6mi
Dew Point: 50°   Wind: 28mph
Humidity: 94%   Direction: 250°WSW
Pressure: 29.77"   Gusts: 41mph
Location:  54.03°N, 8.33°W
Report Text: EIKN 220600Z 25024G36KT 9999 -RA OVC007 11/10 Q1008 NOSIG
Loading
Personal Weather Stations






























Interactive Weather Map New forecast layout! Learn more

10-Day Weather Forecast

Advertisements
Track Severe Weather on mobile